Main page
METAR-TAF:

METAR-TAF

Airports :

Mackenzie Airport

Mackenzie, British Columbia, Canada

latitude: 55-18N, longitude: 123-08W, elevation: 695 m

Current weather observation

The report was made 29 minutes ago, at 13:00 UTC
Wind 2 kt from the East/Southeast
Temperature 7°C
Humidity 93%
Pressure 1017 hPa
Visibility: 14.5 km
Clear sky

METAR: CYZY 211300Z AUTO 11002KT 9SM CLR 07/06 A3004 RMK SLP186

Time: 06:29 (13:29 UTC)

Forecast

The report was made 6 hours and 49 minutes ago, at 06:40 UTC
Forecast valid from 21 at 07 UTC to 21 at 09 UTC
Wind 3 kt from variable directions
Visibility: 10 km
Clear sky

TAF: CYZY 210640Z 2107/2109 VRB03KT P6SM SKC RMK FCST BASED ON AUTO OBS. NXT FCST BY 211500Z

Weather observations and forecasts of more than 4000 airports (METAR and TAF reports).

The available stations are represented by yellow and red dots on the map.

Hover mouse over dot to see the name of the station.

Then click to see weather observations and forecasts.

To change the map : click on the green buttons with a black cross to zoom in, on the green button with a dash to zoom out, or on the green arrows for adjacent maps.


METAR-TAF: